aviador You're here:

KMOT Decoded Metar

MINOT in ND, USA
Report Time2018-06-23 09:54:00
UTC Time2018-06-23 10:26:28
Flight Rules vfr VFR
WindCalm
Visibility9999 m
Phenomena:N/A
Clouds:Few 090 Hf
Overcast 110 Hf
Expected CloudBase > 800 ft AGL from Temp-Dew spread
Ceiling11,000 ft
Temp18°C (ISA +6)
Dew Point16°C (88% RH)
QNH1005 hPa
Density Alt2,972 ft
Elevation1,703 ft
Report Wrong Elevation
Raw Report
KMOT 230954Z AUTO 00000KT 10SM FEW090 OVC110 18/16 A2968 RMK AO2
SLP042 T01830156=

Extra information for KMOT:More info

Metar Taf Metar & Taf Last 4 Metars F.Rules Stats Wind Profile Meteogram Temp Stats Airport Information Weather charts Add Link Nearby VenuesMetar ALERT Operation Metar Decoded Social comments

AIRNAV info for KMOT